Terminal Aerodrome Forecast
Issued by NWS Twin Cities, MN

Home | Current Version | Previous Version | Text Only | Print | Product List | Glossary On
Versions: 1 2 3 4 5 6 7 8 9 10 11 12
000
FTUS43 KMPX 301720
TAFSTC
TAF
KSTC 301720Z 3018/3118 08012KT P6SM SCT035 BKN050
     FM310100 04007KT P6SM BKN060
     FM310600 04005KT P6SM SCT080=

USA.gov is the U.S. government's official web portal to all federal, state and local government web resources and services.